createdAt,value
2023-05-15T00:00:49.039Z,12.40
2023-05-15T00:03:17.675Z,12.30
2023-05-15T00:05:45.466Z,12.20
2023-05-15T00:08:12.927Z,12.30
2023-05-15T00:10:42.901Z,12.40
2023-05-15T00:13:19.065Z,12.40
2023-05-15T00:15:46.531Z,12.40
2023-05-15T00:18:14.066Z,12.50
2023-05-15T00:20:41.576Z,12.40
2023-05-15T00:23:09.653Z,12.40
2023-05-15T00:25:37.696Z,12.40
2023-05-15T00:28:05.217Z,12.30
2023-05-15T00:30:32.646Z,12.20
2023-05-15T00:33:00.505Z,12.20
2023-05-15T00:35:28.055Z,12.00
2023-05-15T00:37:55.615Z,11.90
2023-05-15T00:40:25.214Z,11.80
2023-05-15T00:42:53.533Z,11.90
2023-05-15T00:45:22.898Z,11.80
2023-05-15T00:47:51.279Z,11.80
2023-05-15T00:50:19.821Z,11.70
2023-05-15T00:52:48.767Z,11.50
2023-05-15T00:55:16.318Z,11.50
2023-05-15T00:57:44.447Z,11.40
2023-05-15T01:00:15.755Z,11.50
2023-05-15T01:02:43.332Z,11.50
2023-05-15T01:05:10.906Z,11.60
2023-05-15T01:07:49.506Z,11.60
2023-05-15T01:10:19.560Z,11.60
2023-05-15T01:12:50.398Z,11.60
2023-05-15T01:15:17.891Z,11.60
2023-05-15T01:17:45.466Z,11.70
2023-05-15T01:20:15.530Z,11.60
2023-05-15T01:23:09.730Z,11.70
2023-05-15T01:25:56.815Z,11.70
2023-05-15T01:28:31.768Z,11.70
2023-05-15T01:31:06.373Z,11.70
2023-05-15T01:33:40.927Z,11.70
2023-05-15T01:36:11.903Z,11.70
2023-05-15T01:38:43.536Z,11.70
2023-05-15T01:41:16.172Z,11.60
2023-05-15T01:43:46.418Z,11.60
2023-05-15T01:46:16.919Z,11.60
2023-05-15T01:48:46.277Z,11.60
2023-05-15T01:51:14.907Z,11.60
2023-05-15T01:53:44.435Z,11.60
2023-05-15T01:56:15.396Z,11.60
2023-05-15T01:58:44.029Z,11.60
2023-05-15T02:01:12.263Z,11.50
2023-05-15T02:03:41.475Z,11.50
2023-05-15T02:06:09.706Z,11.50
2023-05-15T02:08:37.543Z,11.50
2023-05-15T02:11:05.813Z,11.50
2023-05-15T02:13:34.136Z,11.40
2023-05-15T02:16:01.873Z,11.40
2023-05-15T02:18:29.524Z,11.30
2023-05-15T02:20:58.410Z,11.30
2023-05-15T02:23:25.972Z,11.30
2023-05-15T02:26:07.876Z,11.40
2023-05-15T02:28:43.122Z,11.40
2023-05-15T02:31:24.659Z,11.40
2023-05-15T02:34:03.394Z,11.40
2023-05-15T02:36:37.452Z,11.30
2023-05-15T02:39:05.583Z,11.30
2023-05-15T02:41:34.440Z,11.20
2023-05-15T02:44:02.801Z,11.20
2023-05-15T02:46:32.227Z,11.20
2023-05-15T02:49:00.801Z,11.20
2023-05-15T02:51:28.292Z,11.20
2023-05-15T02:53:55.878Z,11.20
2023-05-15T02:56:23.381Z,11.20
2023-05-15T02:58:50.851Z,11.10
2023-05-15T03:01:18.395Z,11.20
2023-05-15T03:03:48.469Z,11.20
2023-05-15T03:06:16.634Z,11.30
2023-05-15T03:08:44.593Z,11.20
2023-05-15T03:11:12.142Z,11.10
2023-05-15T03:13:39.592Z,11.20
2023-05-15T03:16:07.445Z,11.20
2023-05-15T03:18:34.899Z,11.20
2023-05-15T03:21:02.373Z,11.20
2023-05-15T03:23:31.262Z,11.30
2023-05-15T03:25:58.975Z,11.30
2023-05-15T03:28:26.523Z,11.30
2023-05-15T03:30:54.025Z,11.30
2023-05-15T03:33:21.603Z,11.20
2023-05-15T03:35:49.034Z,11.20
2023-05-15T03:38:16.526Z,11.30
2023-05-15T03:40:43.973Z,11.30
2023-05-15T03:43:11.618Z,11.30
2023-05-15T03:45:39.980Z,11.40
2023-05-15T03:48:07.570Z,11.40
2023-05-15T03:50:35.025Z,11.50
2023-05-15T03:53:03.762Z,11.50
2023-05-15T03:55:31.228Z,11.60
2023-05-15T03:57:59.278Z,11.60
2023-05-15T04:00:27.034Z,11.70
2023-05-15T04:02:54.809Z,11.70
2023-05-15T04:05:22.811Z,11.80
2023-05-15T04:07:50.401Z,11.80
2023-05-15T04:10:18.007Z,11.80
2023-05-15T04:12:45.423Z,11.90
2023-05-15T04:15:21.525Z,11.90
2023-05-15T04:17:50.965Z,12.00
2023-05-15T04:20:20.197Z,12.00
2023-05-15T04:22:47.828Z,12.00
2023-05-15T04:25:16.349Z,11.90
2023-05-15T04:27:44.658Z,11.90
2023-05-15T04:30:12.984Z,11.80
2023-05-15T04:32:40.869Z,11.90
2023-05-15T04:35:10.678Z,12.00
2023-05-15T04:37:41.796Z,12.00
2023-05-15T04:40:09.986Z,12.00
2023-05-15T04:42:39.060Z,12.10
2023-05-15T04:45:07.871Z,12.10
2023-05-15T04:47:36.115Z,12.30
2023-05-15T04:50:03.782Z,12.30
2023-05-15T04:52:32.224Z,12.40
2023-05-15T04:54:59.706Z,12.50
2023-05-15T04:57:27.604Z,12.60
2023-05-15T04:59:55.076Z,12.80
2023-05-15T05:02:23.533Z,12.60
2023-05-15T05:04:51.198Z,12.60
2023-05-15T05:07:18.992Z,12.70
2023-05-15T05:09:46.386Z,12.50
2023-05-15T05:12:14.547Z,12.60
2023-05-15T05:14:42.328Z,12.70
2023-05-15T05:17:10.447Z,12.70
2023-05-15T05:19:37.839Z,12.60
2023-05-15T05:22:05.874Z,12.70
2023-05-15T05:24:35.818Z,12.60
2023-05-15T05:27:04.252Z,12.60
2023-05-15T05:29:31.939Z,12.50
2023-05-15T05:31:59.569Z,12.60
2023-05-15T05:34:26.987Z,12.70
2023-05-15T05:36:54.511Z,13.10
2023-05-15T05:39:21.986Z,13.30
2023-05-15T05:41:49.444Z,13.20
2023-05-15T05:44:16.885Z,13.70
2023-05-15T05:46:45.693Z,13.90
2023-05-15T05:49:13.185Z,14.50
2023-05-15T05:54:08.332Z,16.70
2023-05-15T05:56:36.245Z,16.30
2023-05-15T05:59:03.651Z,17.00
2023-05-15T06:01:31.130Z,18.20
2023-05-15T06:03:58.739Z,18.50
2023-05-15T06:06:26.421Z,19.30
2023-05-15T06:08:56.186Z,19.10
2023-05-15T06:11:25.540Z,19.20
2023-05-15T12:26:29.106Z,20.50
2023-05-15T12:28:56.799Z,20.80
2023-05-15T12:31:24.513Z,20.80
2023-05-15T12:33:52.173Z,20.70
2023-05-15T12:36:22.552Z,20.80
2023-05-15T12:38:50.136Z,20.60
2023-05-15T12:41:20.045Z,20.80
2023-05-15T12:43:48.605Z,20.90
2023-05-15T12:46:16.073Z,20.90
2023-05-15T12:48:43.852Z,21.00
2023-05-15T12:51:11.319Z,20.80
2023-05-15T12:53:40.077Z,20.60
2023-05-15T12:56:09.518Z,20.80
2023-05-15T12:58:38.345Z,20.80
2023-05-15T13:01:06.278Z,20.90
2023-05-15T13:03:34.572Z,20.90
2023-05-15T13:06:07.052Z,21.10
2023-05-15T13:08:42.617Z,21.10
2023-05-15T13:11:14.178Z,21.00
2023-05-15T13:13:46.516Z,20.80
2023-05-15T13:16:29.590Z,20.90
2023-05-15T13:19:00.464Z,20.90
2023-05-15T13:21:28.444Z,20.90
2023-05-15T13:23:55.898Z,21.20
2023-05-15T13:26:23.468Z,21.20
2023-05-15T13:28:51.044Z,21.00
2023-05-15T13:31:18.603Z,21.00
2023-05-15T13:33:46.229Z,20.90
2023-05-15T13:36:13.787Z,20.70
2023-05-15T13:38:41.262Z,21.00
2023-05-15T13:41:09.223Z,21.10
2023-05-15T13:43:36.716Z,21.00
2023-05-15T13:46:04.706Z,21.10
2023-05-15T13:48:32.330Z,21.50
2023-05-15T13:50:59.755Z,22.00
2023-05-15T13:53:27.255Z,21.80
2023-05-15T13:55:54.948Z,21.70
2023-05-15T13:58:22.562Z,21.80
2023-05-15T14:00:50.202Z,22.10
2023-05-15T14:03:17.762Z,22.10
2023-05-15T14:05:45.282Z,22.20
2023-05-15T14:08:12.806Z,22.00
2023-05-15T14:10:40.371Z,22.10
2023-05-15T14:13:07.909Z,22.00
2023-05-15T14:15:35.486Z,22.10
2023-05-15T14:18:03.176Z,21.60
2023-05-15T14:20:30.727Z,22.00
2023-05-15T14:22:58.249Z,22.20
2023-05-15T14:25:25.778Z,21.80
2023-05-15T14:27:53.223Z,21.70
2023-05-15T14:30:22.078Z,21.60
2023-05-15T14:32:49.592Z,21.60
2023-05-15T14:35:17.284Z,21.90
2023-05-15T14:37:45.193Z,22.20
2023-05-15T14:40:13.117Z,22.40
2023-05-15T14:42:40.718Z,22.70
2023-05-15T14:45:08.581Z,22.90
2023-05-15T14:47:36.049Z,23.10
2023-05-15T14:50:03.816Z,22.90
2023-05-15T14:52:31.375Z,22.60
2023-05-15T14:55:08.601Z,22.30
2023-05-15T14:57:38.157Z,21.80
2023-05-15T15:00:06.833Z,21.40
2023-05-15T15:02:34.681Z,21.60
2023-05-15T15:05:02.280Z,21.80
2023-05-15T15:07:32.977Z,22.00
2023-05-15T15:10:00.521Z,22.40
2023-05-15T15:12:27.970Z,22.60
2023-05-15T15:14:55.449Z,22.60
2023-05-15T15:17:22.890Z,22.50
2023-05-15T15:19:50.314Z,22.60
2023-05-15T15:22:17.815Z,22.70
2023-05-15T15:24:45.394Z,22.70
2023-05-15T15:27:12.795Z,22.70
2023-05-15T15:29:40.281Z,22.90
2023-05-15T15:32:08.030Z,23.00
2023-05-15T15:34:35.672Z,23.20
2023-05-15T15:37:03.084Z,23.20
2023-05-15T15:39:30.472Z,22.90
2023-05-15T15:41:57.922Z,22.80
2023-05-15T15:44:25.470Z,23.00
2023-05-15T15:46:52.922Z,23.00
2023-05-15T15:49:20.624Z,22.50
2023-05-15T15:51:48.106Z,22.70
2023-05-15T15:54:15.463Z,22.60
2023-05-15T15:56:43.012Z,22.40
2023-05-15T15:59:10.570Z,22.70
2023-05-15T16:01:38.148Z,22.70
2023-05-15T16:04:06.179Z,22.20
2023-05-15T16:06:34.232Z,22.00
2023-05-15T16:09:02.658Z,22.00
2023-05-15T16:11:30.273Z,21.70
2023-05-15T16:13:57.852Z,21.70
2023-05-15T16:16:25.369Z,21.60
2023-05-15T16:18:52.879Z,21.50
2023-05-15T16:21:20.943Z,21.40
2023-05-15T16:23:48.374Z,21.60
2023-05-15T16:26:15.986Z,22.00
2023-05-15T16:28:43.414Z,22.00
2023-05-15T16:31:10.942Z,22.00
2023-05-15T16:33:38.486Z,22.10
2023-05-15T16:36:06.502Z,22.30
2023-05-15T16:38:33.922Z,22.30
2023-05-15T16:41:02.222Z,22.30
2023-05-15T16:43:29.954Z,22.20
2023-05-15T16:45:57.343Z,22.00
2023-05-15T16:48:26.380Z,21.80
2023-05-15T16:50:54.486Z,21.70
2023-05-15T16:53:22.430Z,21.40
2023-05-15T16:55:50.772Z,21.20
2023-05-15T16:58:18.318Z,21.10
2023-05-15T17:00:45.777Z,20.90
2023-05-15T17:03:13.752Z,20.70
2023-05-15T17:05:41.370Z,20.60
2023-05-15T17:08:08.767Z,20.50
2023-05-15T17:10:36.221Z,20.60
2023-05-15T17:13:04.682Z,20.60
2023-05-15T17:15:32.123Z,20.60
2023-05-15T17:17:59.581Z,20.60
2023-05-15T17:20:27.059Z,20.60
2023-05-15T17:22:54.447Z,20.60
2023-05-15T17:25:21.959Z,20.60
2023-05-15T17:27:49.406Z,20.70
2023-05-15T17:30:17.009Z,20.60
2023-05-15T17:32:44.489Z,20.70
2023-05-15T17:35:12.004Z,20.80
2023-05-15T17:37:40.038Z,20.80
2023-05-15T17:40:08.423Z,20.80
2023-05-15T17:42:36.234Z,20.80
2023-05-15T17:45:04.153Z,20.80
2023-05-15T17:47:31.594Z,20.70
2023-05-15T17:49:59.025Z,20.60
2023-05-15T17:52:26.537Z,20.40
2023-05-15T17:54:54.062Z,20.20
2023-05-15T17:57:21.588Z,20.10
2023-05-15T17:59:49.046Z,20.10
2023-05-15T18:02:16.448Z,20.00
2023-05-15T18:04:44.304Z,20.00
2023-05-15T18:07:11.805Z,20.00
2023-05-15T18:09:39.454Z,20.00
2023-05-15T18:12:07.371Z,19.90
2023-05-15T18:14:34.824Z,19.90
2023-05-15T18:17:02.276Z,19.80
2023-05-15T18:19:29.796Z,19.80
2023-05-15T18:21:57.520Z,19.80
2023-05-15T18:24:25.176Z,19.80
2023-05-15T18:26:52.670Z,19.70
2023-05-15T18:29:20.121Z,19.70
2023-05-15T18:31:47.670Z,19.60
2023-05-15T18:34:15.195Z,19.60
2023-05-15T18:36:42.656Z,19.50
2023-05-15T18:39:10.167Z,19.40
2023-05-15T18:41:38.144Z,19.40
2023-05-15T18:44:05.596Z,19.20
2023-05-15T18:46:34.119Z,19.10
2023-05-15T18:49:01.656Z,19.00
2023-05-15T18:51:29.223Z,18.80
2023-05-15T18:53:56.634Z,18.40
2023-05-15T18:56:25.164Z,18.30
2023-05-15T18:58:53.734Z,18.00
2023-05-15T19:01:21.905Z,17.90
2023-05-15T19:03:49.335Z,17.80
2023-05-15T19:06:20.043Z,17.70
2023-05-15T19:08:48.753Z,17.40
2023-05-15T19:11:17.340Z,17.30
2023-05-15T19:13:44.832Z,17.20
2023-05-15T19:16:12.440Z,17.20
2023-05-15T19:18:40.191Z,17.00
2023-05-15T19:21:07.720Z,16.90
2023-05-15T19:23:35.198Z,16.90
2023-05-15T19:26:02.651Z,16.80
2023-05-15T19:28:30.094Z,16.80
2023-05-15T19:30:57.532Z,16.80
2023-05-15T19:33:25.007Z,17.00
2023-05-15T19:35:52.479Z,17.20
2023-05-15T19:38:19.875Z,17.20
2023-05-15T19:40:47.389Z,17.50
2023-05-15T19:43:14.864Z,17.70
2023-05-15T19:45:42.935Z,17.80
2023-05-15T19:48:10.474Z,17.90
2023-05-15T19:50:40.817Z,17.90
2023-05-15T19:53:08.551Z,17.90
2023-05-15T19:55:36.041Z,17.80
2023-05-15T19:58:03.824Z,17.80
2023-05-15T20:00:31.762Z,17.80
2023-05-15T20:03:00.561Z,17.80
2023-05-15T20:05:28.668Z,17.80
2023-05-15T20:07:56.169Z,17.80
2023-05-15T20:10:24.278Z,17.70
2023-05-15T20:12:51.843Z,17.60
2023-05-15T20:15:19.318Z,17.50
2023-05-15T20:17:46.834Z,17.60
2023-05-15T20:20:15.164Z,17.60
2023-05-15T20:22:44.480Z,17.60
2023-05-15T20:25:12.007Z,17.60
2023-05-15T20:27:39.535Z,17.50
2023-05-15T20:30:07.822Z,17.50
2023-05-15T20:32:36.399Z,17.50
2023-05-15T20:35:04.573Z,17.50
2023-05-15T20:37:34.431Z,17.40
2023-05-15T20:40:02.019Z,17.40
2023-05-15T20:42:29.452Z,17.40
2023-05-15T20:44:56.947Z,17.30
2023-05-15T20:47:24.485Z,17.30
2023-05-15T20:49:51.920Z,17.30
2023-05-15T20:52:20.857Z,17.20
2023-05-15T20:54:48.831Z,17.30
2023-05-15T20:57:16.374Z,17.20
2023-05-15T20:59:43.736Z,17.20
2023-05-15T21:02:11.135Z,17.10
2023-05-15T21:04:39.332Z,17.10
2023-05-15T21:07:07.178Z,17.10
2023-05-15T21:09:34.638Z,17.10
2023-05-15T21:12:03.846Z,17.00
2023-05-15T21:14:31.364Z,17.10
2023-05-15T21:16:58.850Z,17.10
2023-05-15T21:19:26.341Z,17.00
2023-05-15T21:21:53.871Z,17.00
2023-05-15T21:24:21.483Z,16.90
2023-05-15T21:26:49.071Z,16.90
2023-05-15T21:29:16.470Z,16.80
2023-05-15T21:31:43.977Z,16.80
2023-05-15T21:34:11.607Z,16.80
2023-05-15T21:36:38.995Z,16.70
2023-05-15T21:39:06.778Z,16.80
2023-05-15T21:41:34.682Z,16.80
2023-05-15T21:44:02.255Z,16.80
2023-05-15T21:46:29.709Z,16.80
2023-05-15T21:48:57.851Z,16.80
2023-05-15T21:51:25.373Z,16.80
2023-05-15T21:53:52.815Z,16.80
2023-05-15T21:56:20.358Z,16.80
2023-05-15T21:58:47.860Z,16.80
2023-05-15T22:01:16.827Z,16.80
2023-05-15T22:03:45.271Z,16.70
2023-05-15T22:06:12.858Z,16.60
2023-05-15T22:08:40.293Z,16.80
2023-05-15T22:11:07.977Z,16.80
2023-05-15T22:13:35.449Z,16.70
2023-05-15T22:16:03.023Z,16.70
2023-05-15T22:18:31.600Z,16.70
2023-05-15T22:20:59.240Z,16.70
2023-05-15T22:23:27.001Z,16.70
2023-05-15T22:25:54.419Z,16.80
2023-05-15T22:28:21.918Z,16.80
2023-05-15T22:30:49.529Z,16.80
2023-05-15T22:33:16.997Z,16.80
2023-05-15T22:35:44.590Z,16.80
2023-05-15T22:38:12.360Z,16.80
2023-05-15T22:40:39.892Z,16.80
2023-05-15T22:43:07.271Z,16.80
2023-05-15T22:45:34.842Z,16.80
2023-05-15T22:48:02.396Z,16.90
2023-05-15T22:50:29.881Z,16.90
2023-05-15T22:52:57.422Z,16.90
2023-05-15T22:55:24.969Z,16.90
2023-05-15T22:57:52.379Z,16.90
2023-05-15T23:00:20.047Z,16.90
2023-05-15T23:02:47.521Z,16.70
2023-05-15T23:05:15.153Z,16.60
2023-05-15T23:07:42.650Z,16.60
2023-05-15T23:10:10.369Z,16.60
2023-05-15T23:12:37.938Z,16.70
2023-05-15T23:15:05.745Z,16.70
2023-05-15T23:17:33.188Z,16.70
2023-05-15T23:20:00.801Z,16.70
2023-05-15T23:22:28.198Z,16.70
2023-05-15T23:24:55.692Z,16.80
2023-05-15T23:27:23.183Z,16.90
2023-05-15T23:29:50.624Z,16.90
2023-05-15T23:32:18.095Z,16.90
2023-05-15T23:34:45.759Z,16.90
2023-05-15T23:37:13.139Z,17.00
2023-05-15T23:39:40.659Z,17.00
2023-05-15T23:42:10.066Z,17.10
2023-05-15T23:44:37.482Z,17.00
2023-05-15T23:47:05.346Z,17.10
2023-05-15T23:49:33.639Z,17.10
2023-05-15T23:52:01.023Z,17.20
2023-05-15T23:54:28.486Z,17.20
2023-05-15T23:56:56.031Z,17.30
2023-05-15T23:59:23.477Z,17.30
